Latest Coastal Weather Observations for Hogan Island

IDV60701

Issued at 10:52 am EST Sunday 14 April 2024 (issued every 10 minutes, with the page automatically refreshed every 10 minutes)

About coastal observations | Map of coastal stations | Coastal observations for VIC | Marine services | Other Formats
Station Details ID: 200838 Name: HOGAN ISLAND Lat: -39.22 Lon: 146.98 Height: 116.0 m
Data from the previous 72 hours. | See also: Recent months at Hogan Island
Date/Time
EST
Wind Sea
Height
m
Swell Vis
km
Cloud Weather Temp
°C
Press
MSL
hPa
Rain since
9am
mm
Dir  Spd
kts
Gust
kts
Height
m
Period
s
Dir
14/10:30am WNW 16 18 - - - - - - - 15.2 1022.3 0.0
14/10:00am W 19 23 - - - - - - - 14.4 1022.3 0.0
14/09:30am WNW 15 18 - - - - - - - 14.6 1022.3 0.0
14/09:00am W 16 21 - - - - - - - 14.5 1022.4 1.2
14/08:30am W 19 22 - - - - - - - 14.3 1022.4 1.2
14/08:00am WNW 15 18 - - - - - - - 14.4 1022.2 1.2
14/07:30am WNW 14 18 - - - - - - - 14.3 1022.1 1.2
14/07:00am W 16 20 - - - - - - - 13.9 1021.8 1.2
14/06:30am WNW 14 17 - - - - - - - 14.1 1021.5 1.2
14/06:00am WNW 14 17 - - - - - - Recent precip. 14.1 1021.6 1.2
14/05:30am W 12 16 - - - - - - - 14.1 1021.5 1.2
14/05:00am WNW 12 14 - - - - - - - 13.7 1021.3 0.8
14/04:30am W 17 20 - - - - - - - 13.8 1021.3 0.2
14/04:00am WNW 15 17 - - - - - - - 14.1 1021.3 0.2
14/03:30am WNW 12 16 - - - - - - - 14.0 1021.4 0.2
14/03:00am WNW 13 15 - - - - - - - 14.1 1021.6 0.0
14/02:30am WNW 15 17 - - - - - - - 14.1 1021.7 0.0
14/02:00am WNW 15 17 - - - - - - - 14.2 1022.1 0.0
14/01:30am WNW 15 19 - - - - - - - 14.0 1022.2 0.0
14/01:00am WNW 15 17 - - - - - - - 14.4 1022.3 0.0
14/12:30am WNW 16 20 - - - - - - - 14.5 1022.2 0.0
14/12:00am W 15 20 - - - - - - - 14.4 1021.9 0.0
 
Date/Time
EST
Wind Sea
Height
m
Swell Vis
km
Cloud Weather Temp
°C
Press
MSL
hPa
Rain since
9am
mm
Dir  Spd
kts
Gust
kts
Height
m
Period
s
Dir
13/11:30pm WNW 16 19 - - - - - - - 15.4 1022.2 0.0
13/11:00pm W 16 18 - - - - - - - 15.3 1022.4 0.0
13/10:30pm W 19 23 - - - - - - - 15.2 1022.5 0.0
13/10:00pm WSW 16 21 - - - - - - - 15.1 1022.7 0.0
13/09:30pm W 18 21 - - - - - - - 14.9 1022.6 0.0
13/09:00pm WNW 14 17 - - - - - - - 14.5 1022.5 0.0
13/08:30pm W 20 24 - - - - - - - 14.7 1022.3 0.0
13/08:00pm W 18 20 - - - - - - - 14.9 1022.3 0.0
13/07:30pm W 18 20 - - - - - - - 14.9 1022.2 0.0
13/07:00pm W 19 21 - - - - - - - 14.9 1021.9 0.0
13/06:30pm W 19 22 - - - - - - - 14.9 1021.8 0.0
13/06:00pm W 19 21 - - - - - - - 15.0 1021.5 0.0
13/05:30pm W 19 22 - - - - - - - 15.3 1021.1 0.0
13/05:00pm WSW 19 22 - - - - - - - 16.0 1021.0 0.0
13/04:30pm W 19 22 - - - - - - - 15.9 1020.8 0.0
13/04:00pm WSW 20 22 - - - - - - - 16.5 1020.8 0.0
13/03:30pm WSW 20 23 - - - - - - - 17.0 1020.8 0.0
13/03:00pm WSW 20 24 - - - - - - - 17.8 1020.8 0.0
13/02:30pm W 22 25 - - - - - - - 17.7 1020.8 0.0
13/02:00pm W 21 23 - - - - - - - 17.2 1020.9 0.0
13/01:30pm WSW 21 23 - - - - - - - 17.0 1021.0 0.0
13/01:00pm W 20 22 - - - - - - - 17.8 1021.1 0.0
13/12:30pm W 19 22 - - - - - - - 18.3 1021.5 0.0
13/12:00pm W 18 21 - - - - - - - 18.2 1021.8 0.0
13/11:30am WSW 14 16 - - - - - - - 18.1 1022.2 0.0
13/11:00am WSW 17 20 - - - - - - - 17.2 1022.1 0.0
13/10:30am WSW 17 19 - - - - - - - 17.4 1021.9 0.0
13/10:00am WSW 17 21 - - - - - - - 16.7 1021.8 0.0
13/09:30am WSW 18 21 - - - - - - - 16.3 1021.8 0.0
13/09:00am WSW 16 19 - - - - - - - 15.8 1021.6 0.2
13/08:30am WSW 20 22 - - - - - - - 14.4 1021.4 0.2
13/08:00am WSW 16 19 - - - - - - - 14.2 1021.2 0.2
13/07:30am WSW 17 21 - - - - - - - 14.8 1020.9 0.2
13/07:00am WSW 19 22 - - - - - - - 14.5 1020.5 0.2
13/06:30am WSW 19 22 - - - - - - - 14.2 1020.3 0.2
13/06:00am WSW 21 24 - - - - - - - 14.1 1020.0 0.2
13/05:30am W 20 23 - - - - - - - 14.1 1019.8 0.2
13/05:00am WSW 21 23 - - - - - - - 14.2 1019.8 0.2
13/04:30am WSW 19 22 - - - - - - - 14.0 1019.6 0.2
13/04:00am W 19 22 - - - - - - - 14.1 1019.6 0.2
13/03:30am WNW 18 23 - - - - - - - 13.7 1019.6 0.2
13/03:00am W 19 24 - - - - - - - 13.4 1019.7 0.0
13/02:30am WSW 19 21 - - - - - - - 14.3 1019.6 0.0
13/02:00am W 18 22 - - - - - - - 14.2 1020.0 0.0
13/01:30am W 21 24 - - - - - - - 14.5 1020.0 0.0
13/01:00am W 20 23 - - - - - - - 14.4 1020.0 0.0
13/12:30am W 20 24 - - - - - - - 14.9 1019.9 0.0
13/12:00am W 19 23 - - - - - - - 14.6 1019.9 0.0
 
Date/Time
EST
Wind Sea
Height
m
Swell Vis
km
Cloud Weather Temp
°C
Press
MSL
hPa
Rain since
9am
mm
Dir  Spd
kts
Gust
kts
Height
m
Period
s
Dir
12/11:30pm W 17 22 - - - - - - - 14.5 1019.9 0.0
12/11:00pm W 19 22 - - - - - - - 14.4 1020.0 0.0
12/10:30pm W 21 23 - - - - - - - 14.5 1020.1 0.0
12/10:00pm W 20 23 - - - - - - - 14.2 1020.2 0.0
12/09:30pm W 20 23 - - - - - - - 14.4 1020.1 0.0
12/09:00pm W 21 24 - - - - - - - 14.6 1020.1 0.0
12/08:30pm WSW 20 23 - - - - - - - 14.9 1020.1 0.0
12/08:00pm WSW 19 23 - - - - - - - 14.8 1020.0 0.0
12/07:30pm WSW 21 23 - - - - - - - 14.8 1019.9 0.0
12/07:00pm WSW 21 25 - - - - - - - 14.5 1019.8 0.0
12/06:30pm WSW 21 24 - - - - - - - 14.6 1019.6 0.0
12/06:00pm W 22 24 - - - - - - - 14.7 1019.3 0.0
12/05:30pm W 22 25 - - - - - - - 15.0 1019.2 0.0
12/05:00pm W 20 23 - - - - - - - 15.7 1019.0 0.0
12/04:30pm W 18 22 - - - - - - - 16.2 1019.0 0.0
12/04:00pm W 19 22 - - - - - - - 16.8 1019.0 0.0
12/03:30pm WSW 19 22 - - - - - - - 16.8 1019.2 0.0
12/03:00pm WSW 19 22 - - - - - - - 17.3 1019.3 0.0
12/02:30pm WSW 17 21 - - - - - - - 18.3 1019.6 0.0
12/02:00pm WSW 18 23 - - - - - - - 17.1 1019.6 0.0
12/01:30pm WSW 17 21 - - - - - - - 17.8 1019.8 0.0
12/01:00pm WSW 17 20 - - - - - - - 17.9 1020.2 0.0
12/12:30pm WSW 17 21 - - - - - - - 16.2 1020.6 0.0
12/12:00pm WSW 17 21 - - - - - - - 16.5 1020.8 0.0
12/11:30am WSW 13 16 - - - - - - - 17.3 1021.0 0.0
12/11:00am W 17 19 - - - - - - - 15.5 1021.1 0.0
12/10:30am W 20 23 - - - - - - - 15.0 1021.2 0.0
12/10:00am W 14 17 - - - - - - - 15.4 1021.3 0.0
12/09:30am W 11 15 - - - - - - - 14.2 1021.4 0.0
12/09:00am W 16 23 - - - - - - Rain 13.6 1021.5 0.4
12/08:52am W 15 23 - - - - - - - 14.3 1021.3 0.2
12/08:30am W 11 13 - - - - - - - 15.1 1021.3 0.0
12/08:00am W 13 16 - - - - - - - 14.0 1021.2 0.0
12/07:30am W 13 15 - - - - - - - 13.7 1020.8 0.0
12/07:00am W 9 11 - - - - - - - 13.5 1020.7 0.0
12/06:30am SW 8 11 - - - - - - - 12.3 1020.5 0.0
12/06:00am W 13 16 - - - - - - - 13.0 1020.5 0.0
12/05:30am WNW 10 15 - - - - - - - 13.6 1020.3 0.0
12/05:00am WSW 12 14 - - - - - - - 14.2 1020.2 0.0
12/04:30am WSW 11 12 - - - - - - - 13.8 1020.2 0.0
12/04:00am WSW 11 13 - - - - - - - 13.5 1020.2 0.0
12/03:30am WSW 13 16 - - - - - - - 13.7 1020.0 0.0
12/03:00am WSW 13 16 - - - - - - - 13.9 1020.2 0.0
12/02:30am WSW 12 14 - - - - - - - 13.9 1020.5 0.0
12/02:00am WSW 12 15 - - - - - - - 14.0 1020.8 0.0
12/01:30am WSW 13 16 - - - - - - - 14.1 1021.1 0.0
12/01:00am WSW 14 16 - - - - - - - 13.8 1021.2 0.0
12/12:30am WSW 13 15 - - - - - - - 13.7 1021.3 0.0
12/12:00am WSW 13 14 - - - - - - - 13.8 1021.3 0.0
 
Date/Time
EST
Wind Sea
Height
m
Swell Vis
km
Cloud Weather Temp
°C
Press
MSL
hPa
Rain since
9am
mm
Dir  Spd
kts
Gust
kts
Height
m
Period
s
Dir
11/11:30pm WSW 11 13 - - - - - - - 13.6 1021.5 0.0
11/11:00pm WSW 13 14 - - - - - - - 13.7 1021.7 0.0
11/10:30pm WSW 11 13 - - - - - - - 13.8 1021.9 0.0
11/10:00pm WSW 12 15 - - - - - - - 14.3 1022.1 0.0
11/09:30pm WSW 11 13 - - - - - - - 14.5 1021.9 0.0
11/09:00pm WSW 12 13 - - - - - - - 14.6 1021.9 0.0
11/08:30pm W 11 13 - - - - - - - 14.1 1021.8 0.0
11/08:00pm W 10 12 - - - - - - - 14.0 1022.1 0.0
11/07:30pm WSW 10 12 - - - - - - - 13.7 1022.2 0.0
11/07:00pm WSW 10 12 - - - - - - - 13.6 1022.2 0.0
11/06:30pm WSW 10 11 - - - - - - - 13.7 1021.9 0.0
11/06:00pm WSW 11 12 - - - - - - - 13.9 1021.7 0.0
11/05:30pm WSW 11 13 - - - - - - - 14.8 1021.6 0.0
11/05:00pm WSW 12 13 - - - - - - - 15.4 1021.5 0.0
11/04:30pm W 13 15 - - - - - - - 15.6 1021.4 0.0
11/04:00pm WSW 13 15 - - - - - - - 16.9 1021.3 0.0
11/03:30pm WSW 13 14 - - - - - - - 16.2 1021.3 0.0
11/03:00pm WSW 12 14 - - - - - - - 16.8 1021.2 0.0
11/02:30pm W 12 14 - - - - - - - 18.2 1021.0 0.0
11/02:00pm WSW 11 13 - - - - - - - 17.8 1021.0 0.0
11/01:30pm WSW 12 14 - - - - - - - 17.1 1021.0 0.0
11/01:00pm WSW 12 14 - - - - - - - 17.8 1021.3 0.0
11/12:30pm WSW 13 14 - - - - - - - 17.8 1021.5 0.0
11/12:00pm WSW 12 15 - - - - - - - 17.8 1021.7 0.0
11/11:30am WSW 12 15 - - - - - - - 17.7 1021.6 0.0
11/11:00am WSW 12 15 - - - - - - - 17.4 1021.6 0.0

Other formats

Comma delimited format used in spreadsheet applications
http://www.bom.gov.au/fwo/IDV60701/IDV60701.94949.axf

JavaScript Object Notation format (JSON) in row-major order
http://www.bom.gov.au/fwo/IDV60701/IDV60701.94949.json

Data quality

Most of these data are generated automatically and are frequently updated. Quality checks on data are not normally performed. It is possible for incorrect values to appear. Refer to information at About Latest Weather Observations and please check the disclaimer before using these data.